createdAt,value
2023-06-07T00:02:29.511Z,100.00
2023-06-07T00:05:00.957Z,100.00
2023-06-07T00:07:28.717Z,100.00
2023-06-07T00:09:56.375Z,100.00
2023-06-07T00:12:24.154Z,100.00
2023-06-07T00:14:53.586Z,100.00
2023-06-07T00:17:21.713Z,100.00
2023-06-07T00:19:49.344Z,100.00
2023-06-07T00:22:17.536Z,100.00
2023-06-07T00:24:45.547Z,100.00
2023-06-07T00:27:13.339Z,100.00
2023-06-07T00:29:41.503Z,100.00
2023-06-07T00:32:11.034Z,100.00
2023-06-07T00:34:38.730Z,100.00
2023-06-07T00:37:06.496Z,100.00
2023-06-07T00:39:34.307Z,100.00
2023-06-07T00:42:01.961Z,100.00
2023-06-07T00:44:29.624Z,100.00
2023-06-07T00:46:57.553Z,100.00
2023-06-07T00:49:27.358Z,100.00
2023-06-07T00:51:55.183Z,100.00
2023-06-07T00:54:23.529Z,100.00
2023-06-07T00:56:51.882Z,100.00
2023-06-07T00:59:20.125Z,100.00
2023-06-07T01:01:53.130Z,100.00
2023-06-07T01:04:21.987Z,100.00
2023-06-07T01:06:53.362Z,100.00
2023-06-07T01:09:22.481Z,100.00
2023-06-07T01:11:52.714Z,100.00
2023-06-07T01:14:21.377Z,100.00
2023-06-07T01:16:51.725Z,100.00
2023-06-07T01:19:23.931Z,100.00
2023-06-07T01:21:57.978Z,100.00
2023-06-07T01:24:31.050Z,100.00
2023-06-07T01:27:00.300Z,100.00
2023-06-07T01:29:29.313Z,100.00
2023-06-07T01:31:59.809Z,100.00
2023-06-07T01:34:29.014Z,100.00
2023-06-07T01:36:57.703Z,100.00
2023-06-07T01:39:29.031Z,100.00
2023-06-07T01:41:59.074Z,100.00
2023-06-07T01:44:28.004Z,100.00
2023-06-07T01:46:55.669Z,100.00
2023-06-07T01:49:23.388Z,100.00
2023-06-07T01:51:51.065Z,100.00
2023-06-07T01:54:19.936Z,100.00
2023-06-07T01:56:58.399Z,100.00
2023-06-07T01:59:33.106Z,100.00
2023-06-07T02:02:09.640Z,100.00
2023-06-07T02:04:44.317Z,100.00
2023-06-07T02:07:18.382Z,100.00
2023-06-07T02:09:49.323Z,100.00
2023-06-07T02:12:19.996Z,100.00
2023-06-07T02:14:53.701Z,100.00
2023-06-07T02:17:21.915Z,100.00
2023-06-07T02:19:49.629Z,100.00
2023-06-07T02:22:17.315Z,100.00
2023-06-07T02:24:45.579Z,100.00
2023-06-07T02:27:14.051Z,100.00
2023-06-07T02:29:43.160Z,100.00
2023-06-07T02:32:10.838Z,100.00
2023-06-07T02:34:38.466Z,100.00
2023-06-07T02:37:06.827Z,100.00
2023-06-07T02:39:34.648Z,100.00
2023-06-07T02:42:02.906Z,100.00
2023-06-07T02:44:30.578Z,100.00
2023-06-07T02:46:59.691Z,100.00
2023-06-07T02:49:27.555Z,100.00
2023-06-07T02:51:55.228Z,100.00
2023-06-07T02:54:22.961Z,100.00
2023-06-07T02:56:50.611Z,100.00
2023-06-07T02:59:19.071Z,100.00
2023-06-07T03:01:47.300Z,100.00
2023-06-07T03:04:19.711Z,100.00
2023-06-07T03:06:49.147Z,100.00
2023-06-07T03:09:17.966Z,100.00
2023-06-07T03:11:45.826Z,100.00
2023-06-07T03:14:13.621Z,100.00
2023-06-07T03:16:41.385Z,100.00
2023-06-07T03:19:09.063Z,100.00
2023-06-07T03:21:39.457Z,100.00
2023-06-07T03:24:07.571Z,100.00
2023-06-07T03:26:35.288Z,100.00
2023-06-07T03:29:03.298Z,100.00
2023-06-07T03:31:30.944Z,100.00
2023-06-07T03:33:58.639Z,100.00
2023-06-07T03:36:27.111Z,100.00
2023-06-07T03:38:56.163Z,100.00
2023-06-07T03:41:23.942Z,100.00
2023-06-07T03:43:51.565Z,100.00
2023-06-07T03:46:19.219Z,100.00
2023-06-07T03:48:47.198Z,100.00
2023-06-07T03:51:16.001Z,100.00
2023-06-07T03:53:43.644Z,100.00
2023-06-07T03:56:12.729Z,100.00
2023-06-07T03:58:40.408Z,100.00
2023-06-07T04:01:08.112Z,100.00
2023-06-07T04:03:35.943Z,100.00
2023-06-07T04:06:03.761Z,100.00
2023-06-07T04:08:31.457Z,100.00
2023-06-07T04:10:59.430Z,100.00
2023-06-07T04:13:28.416Z,100.00
2023-06-07T04:15:56.369Z,100.00
2023-06-07T04:18:23.999Z,100.00
2023-06-07T04:20:51.663Z,100.00
2023-06-07T04:23:19.327Z,100.00
2023-06-07T04:25:48.061Z,100.00
2023-06-07T04:28:16.218Z,100.00
2023-06-07T04:30:45.871Z,100.00
2023-06-07T04:33:15.769Z,100.00
2023-06-07T04:35:43.869Z,100.00
2023-06-07T04:38:12.913Z,100.00
2023-06-07T04:40:42.306Z,100.00
2023-06-07T04:43:12.404Z,100.00
2023-06-07T04:45:42.571Z,100.00
2023-06-07T04:48:13.007Z,100.00
2023-06-07T04:50:42.366Z,100.00
2023-06-07T04:53:11.929Z,100.00
2023-06-07T04:55:42.881Z,100.00
2023-06-07T04:58:11.012Z,100.00
2023-06-07T05:00:40.401Z,100.00
2023-06-07T05:03:09.699Z,100.00
2023-06-07T05:05:39.475Z,100.00
2023-06-07T05:08:07.540Z,100.00
2023-06-07T05:10:35.183Z,100.00
2023-06-07T05:13:03.238Z,100.00
2023-06-07T05:15:32.297Z,100.00
2023-06-07T05:18:00.783Z,100.00
2023-06-07T05:20:28.484Z,100.00
2023-06-07T05:22:58.418Z,100.00
2023-06-07T05:25:26.148Z,100.00
2023-06-07T05:28:11.163Z,100.00
2023-06-07T05:30:41.109Z,100.00
2023-06-07T05:33:09.260Z,100.00
2023-06-07T05:35:37.053Z,100.00
2023-06-07T05:38:06.425Z,100.00
2023-06-07T05:40:34.134Z,100.00
2023-06-07T05:43:01.847Z,100.00
2023-06-07T05:45:29.495Z,100.00
2023-06-07T05:47:57.333Z,100.00
2023-06-07T05:50:25.188Z,100.00
2023-06-07T05:52:57.439Z,100.00
2023-06-07T05:55:28.218Z,100.00
2023-06-07T05:57:56.009Z,100.00
2023-06-07T06:00:24.962Z,100.00
2023-06-07T06:02:54.180Z,100.00
2023-06-07T06:05:24.705Z,100.00
2023-06-07T06:07:52.675Z,100.00
2023-06-07T06:10:20.321Z,100.00
2023-06-07T06:12:49.325Z,100.00
2023-06-07T06:15:16.956Z,100.00
2023-06-07T06:17:44.719Z,100.00
2023-06-07T06:20:17.601Z,100.00
2023-06-07T06:22:45.557Z,100.00
2023-06-07T06:25:15.085Z,100.00
2023-06-07T06:27:43.038Z,100.00
2023-06-07T06:30:12.995Z,100.00
2023-06-07T06:32:41.360Z,100.00
2023-06-07T06:35:10.255Z,100.00
2023-06-07T06:37:37.982Z,100.00
2023-06-07T06:40:07.373Z,100.00
2023-06-07T06:42:35.319Z,100.00
2023-06-07T06:45:03.021Z,100.00
2023-06-07T06:47:32.096Z,100.00
2023-06-07T06:50:01.391Z,100.00
2023-06-07T06:52:29.143Z,100.00
2023-06-07T06:54:56.763Z,100.00
2023-06-07T06:57:24.413Z,100.00
2023-06-07T06:59:52.442Z,100.00
2023-06-07T07:02:20.286Z,100.00
2023-06-07T07:04:49.807Z,100.00
2023-06-07T07:07:17.825Z,100.00
2023-06-07T07:09:45.658Z,100.00
2023-06-07T07:12:13.307Z,100.00
2023-06-07T07:14:40.932Z,100.00
2023-06-07T07:17:08.590Z,100.00
2023-06-07T07:19:36.221Z,100.00
2023-06-07T07:22:05.785Z,100.00
2023-06-07T07:24:33.476Z,100.00
2023-06-07T07:27:01.131Z,100.00
2023-06-07T07:29:29.184Z,100.00
2023-06-07T07:31:57.070Z,100.00
2023-06-07T07:34:24.785Z,100.00
2023-06-07T07:36:53.330Z,100.00
2023-06-07T07:39:23.159Z,100.00
2023-06-07T07:41:50.862Z,99.20
2023-06-07T07:44:18.525Z,99.11
2023-06-07T07:46:46.235Z,97.13
2023-06-07T07:49:14.154Z,100.00
2023-06-07T07:51:41.869Z,98.00
2023-06-07T07:54:09.498Z,91.93
2023-06-07T07:56:38.576Z,83.53
2023-06-07T07:59:06.478Z,82.01
2023-06-07T08:01:35.381Z,85.17
2023-06-07T08:04:03.277Z,93.05
2023-06-07T08:06:31.006Z,91.97
2023-06-07T08:08:58.717Z,100.00
2023-06-07T08:11:26.890Z,100.00
2023-06-07T08:13:55.972Z,100.00
2023-06-07T08:16:23.673Z,100.00
2023-06-07T08:18:58.138Z,100.00
2023-06-07T08:21:26.368Z,100.00
2023-06-07T08:23:56.299Z,99.82
2023-06-07T08:26:24.328Z,100.00
2023-06-07T08:28:52.026Z,98.15
2023-06-07T08:31:21.262Z,95.86
2023-06-07T08:33:48.896Z,89.96
2023-06-07T08:36:16.543Z,94.92
2023-06-07T08:38:44.198Z,97.28
2023-06-07T08:41:12.104Z,87.40
2023-06-07T08:43:42.001Z,88.05
2023-06-07T08:46:10.110Z,89.69
2023-06-07T08:48:40.716Z,80.31
2023-06-07T08:51:10.123Z,81.72
2023-06-07T08:53:48.835Z,72.30
2023-06-07T08:56:18.304Z,70.95
2023-06-07T08:58:46.505Z,71.58
2023-06-07T09:01:14.427Z,82.52
2023-06-07T09:03:43.861Z,83.75
2023-06-07T09:06:13.217Z,84.81
2023-06-07T09:08:40.851Z,91.79
2023-06-07T09:11:08.559Z,97.39
2023-06-07T09:13:37.711Z,97.75
2023-06-07T09:16:05.942Z,94.23
2023-06-07T09:18:44.682Z,97.50
2023-06-07T09:21:22.561Z,99.87
2023-06-07T09:23:51.034Z,97.60
2023-06-07T09:26:19.705Z,91.29
2023-06-07T09:28:48.444Z,96.89
2023-06-07T09:31:30.331Z,98.85
2023-06-07T09:33:59.492Z,99.26
2023-06-07T09:36:29.999Z,100.00
2023-06-07T09:38:58.400Z,100.00
2023-06-07T09:41:32.469Z,96.17
2023-06-07T09:44:00.401Z,89.41
2023-06-07T09:46:37.044Z,82.82
2023-06-07T09:49:06.720Z,80.47
2023-06-07T09:51:41.956Z,90.96
2023-06-07T09:54:10.775Z,84.73
2023-06-07T09:56:41.188Z,85.73
2023-06-07T09:59:10.322Z,91.02
2023-06-07T10:01:40.317Z,95.33
2023-06-07T10:04:10.740Z,91.73
2023-06-07T10:06:41.540Z,82.34
2023-06-07T10:09:10.604Z,84.15
2023-06-07T10:11:39.738Z,86.72
2023-06-07T10:14:11.616Z,85.39
2023-06-07T10:16:46.013Z,91.89
2023-06-07T10:19:20.677Z,90.95
2023-06-07T10:21:51.624Z,88.69
2023-06-07T10:24:23.666Z,91.96
2023-06-07T10:26:55.541Z,89.39
2023-06-07T10:29:30.500Z,85.04
2023-06-07T10:32:08.909Z,89.72
2023-06-07T10:34:39.661Z,93.33
2023-06-07T10:37:09.422Z,90.43
2023-06-07T10:39:39.471Z,87.50
2023-06-07T10:42:07.939Z,90.57
2023-06-07T10:44:38.184Z,93.23
2023-06-07T10:47:31.567Z,92.03
2023-06-07T10:50:00.832Z,85.54
2023-06-07T10:52:28.630Z,83.92
2023-06-07T10:54:56.653Z,78.94
2023-06-07T10:57:36.092Z,79.44
2023-06-07T11:00:27.426Z,84.42
2023-06-07T11:03:28.419Z,81.66
2023-06-07T11:06:11.256Z,81.21
2023-06-07T11:08:39.828Z,82.27
2023-06-07T11:11:52.521Z,83.75
2023-06-07T11:14:20.388Z,77.50
2023-06-07T11:16:48.158Z,81.16
2023-06-07T11:19:19.734Z,71.15
2023-06-07T11:22:07.971Z,83.82
2023-06-07T11:24:39.480Z,81.65
2023-06-07T11:27:15.309Z,80.45
2023-06-07T11:29:44.312Z,81.00
2023-06-07T11:32:12.985Z,78.43
2023-06-07T11:34:40.795Z,72.28
2023-06-07T11:37:11.323Z,73.23
2023-06-07T11:39:39.164Z,76.75
2023-06-07T11:42:07.694Z,77.26
2023-06-07T11:44:36.545Z,70.55
2023-06-07T11:47:06.869Z,74.34
2023-06-07T11:49:36.300Z,69.98
2023-06-07T11:52:04.153Z,73.86
2023-06-07T11:54:33.607Z,76.20
2023-06-07T11:57:02.668Z,70.39
2023-06-07T11:59:30.875Z,68.80
2023-06-07T12:01:59.389Z,71.09
2023-06-07T12:04:28.295Z,68.43
2023-06-07T12:06:56.095Z,72.31
2023-06-07T12:09:23.853Z,73.19
2023-06-07T12:11:54.693Z,73.65
2023-06-07T12:14:32.699Z,69.69
2023-06-07T12:17:01.684Z,66.29
2023-06-07T12:19:29.699Z,66.54
2023-06-07T12:22:08.995Z,68.07
2023-06-07T12:24:40.663Z,69.83
2023-06-07T12:27:13.192Z,68.39
2023-06-07T12:29:42.146Z,68.87
2023-06-07T12:32:11.167Z,70.62
2023-06-07T12:34:44.556Z,72.08
2023-06-07T12:37:12.730Z,66.18
2023-06-07T12:39:40.526Z,64.21
2023-06-07T12:42:10.160Z,64.61
2023-06-07T12:44:38.330Z,69.22
2023-06-07T12:47:06.504Z,66.83
2023-06-07T12:49:34.237Z,71.25
2023-06-07T12:52:03.558Z,69.19
2023-06-07T12:54:31.302Z,72.96
2023-06-07T12:56:58.915Z,74.93
2023-06-07T12:59:27.901Z,78.28
2023-06-07T13:01:55.601Z,77.86
2023-06-07T13:04:24.250Z,76.55
2023-06-07T13:06:51.940Z,74.64
2023-06-07T13:09:20.072Z,77.17
2023-06-07T13:11:48.528Z,74.06
2023-06-07T13:14:16.323Z,75.39
2023-06-07T13:16:45.347Z,78.82
2023-06-07T13:19:13.249Z,76.14
2023-06-07T13:21:41.589Z,83.85
2023-06-07T13:24:09.652Z,83.29
2023-06-07T13:26:37.531Z,80.50
2023-06-07T13:29:05.219Z,80.96
2023-06-07T13:31:33.286Z,87.18
2023-06-07T13:34:03.231Z,82.78
2023-06-07T13:36:31.035Z,82.35
2023-06-07T13:38:58.844Z,83.51
2023-06-07T13:41:28.057Z,83.29
2023-06-07T13:44:08.300Z,82.13
2023-06-07T13:46:44.286Z,83.01
2023-06-07T13:49:13.947Z,77.46
2023-06-07T13:51:41.647Z,77.91
2023-06-07T13:54:09.340Z,80.84
2023-06-07T13:56:37.052Z,75.33
2023-06-07T13:59:04.754Z,78.40
2023-06-07T14:01:32.637Z,76.99
2023-06-07T14:04:00.606Z,75.32
2023-06-07T14:06:29.899Z,79.06
2023-06-07T14:08:57.650Z,73.87
2023-06-07T14:11:26.858Z,75.34
2023-06-07T14:13:54.542Z,71.00
2023-06-07T14:16:22.597Z,71.33
2023-06-07T14:18:51.270Z,70.96
2023-06-07T14:21:19.089Z,77.41
2023-06-07T14:23:48.101Z,78.38
2023-06-07T14:26:16.511Z,83.46
2023-06-07T14:28:44.961Z,79.12
2023-06-07T14:31:12.939Z,77.29
2023-06-07T14:33:40.809Z,81.28
2023-06-07T14:36:08.754Z,76.98
2023-06-07T14:38:37.329Z,77.02
2023-06-07T14:41:06.423Z,76.30
2023-06-07T14:43:34.054Z,73.75
2023-06-07T14:46:01.874Z,70.82
2023-06-07T14:48:29.565Z,70.68
2023-06-07T14:50:57.242Z,72.75
2023-06-07T14:53:25.067Z,70.28
2023-06-07T14:55:52.747Z,70.11
2023-06-07T14:58:21.832Z,70.86
2023-06-07T15:00:50.468Z,66.78
2023-06-07T15:03:18.299Z,69.83
2023-06-07T15:05:46.004Z,67.27
2023-06-07T15:08:13.646Z,68.44
2023-06-07T15:10:41.792Z,68.37
2023-06-07T15:13:09.472Z,68.37
2023-06-07T15:15:38.706Z,73.26
2023-06-07T15:18:06.559Z,73.35
2023-06-07T15:20:34.283Z,71.21
2023-06-07T15:23:01.972Z,70.85
2023-06-07T15:25:29.633Z,72.79
2023-06-07T15:27:57.304Z,72.72
2023-06-07T15:30:24.988Z,69.88
2023-06-07T15:32:54.431Z,71.62
2023-06-07T15:35:22.348Z,71.80
2023-06-07T15:37:50.065Z,72.45
2023-06-07T15:40:17.877Z,75.39
2023-06-07T15:42:45.847Z,74.09
2023-06-07T15:45:13.638Z,73.45
2023-06-07T15:47:41.325Z,72.35
2023-06-07T15:50:10.887Z,72.99
2023-06-07T15:52:38.538Z,76.92
2023-06-07T15:55:07.190Z,81.55
2023-06-07T15:57:34.805Z,76.19
2023-06-07T16:00:02.471Z,73.12
2023-06-07T16:02:30.758Z,70.20
2023-06-07T16:04:58.466Z,69.47
2023-06-07T16:07:28.128Z,68.78
2023-06-07T16:09:55.861Z,70.29
2023-06-07T16:12:23.496Z,70.41
2023-06-07T16:14:51.226Z,72.69
2023-06-07T16:17:18.971Z,80.67
2023-06-07T16:19:46.791Z,79.04
2023-06-07T16:22:15.177Z,74.52
2023-06-07T16:24:44.372Z,74.58
2023-06-07T16:27:12.002Z,78.42
2023-06-07T16:29:39.705Z,77.81
2023-06-07T16:32:08.077Z,78.66
2023-06-07T16:34:35.743Z,82.49
2023-06-07T16:37:04.211Z,82.08
2023-06-07T16:39:32.100Z,81.44
2023-06-07T16:42:01.161Z,81.75
2023-06-07T16:44:29.167Z,82.18
2023-06-07T16:46:57.381Z,81.96
2023-06-07T16:49:26.874Z,82.19
2023-06-07T16:51:54.554Z,84.84
2023-06-07T16:54:22.257Z,85.49
2023-06-07T16:56:49.907Z,85.63
2023-06-07T16:59:18.984Z,87.78
2023-06-07T17:01:46.795Z,87.46
2023-06-07T17:04:14.677Z,87.89
2023-06-07T17:06:42.409Z,91.61
2023-06-07T17:09:10.043Z,91.87
2023-06-07T17:11:37.669Z,90.06
2023-06-07T17:14:05.457Z,89.54
2023-06-07T17:16:34.556Z,91.54
2023-06-07T17:19:03.504Z,90.46
2023-06-07T17:21:31.238Z,93.74
2023-06-07T17:23:59.254Z,91.98
2023-06-07T17:26:27.708Z,92.16
2023-06-07T17:28:55.658Z,94.42
2023-06-07T17:31:23.397Z,94.85
2023-06-07T17:33:52.409Z,95.00
2023-06-07T17:36:20.240Z,95.75
2023-06-07T17:38:49.673Z,99.56
2023-06-07T17:41:17.543Z,100.00
2023-06-07T17:43:45.259Z,100.00
2023-06-07T17:46:12.955Z,100.00
2023-06-07T17:48:40.632Z,100.00
2023-06-07T17:51:09.738Z,100.00
2023-06-07T17:53:39.050Z,100.00
2023-06-07T17:56:06.820Z,100.00
2023-06-07T17:58:34.474Z,100.00
2023-06-07T18:01:02.650Z,100.00
2023-06-07T18:03:30.559Z,100.00
2023-06-07T18:05:58.371Z,100.00
2023-06-07T18:08:27.351Z,100.00
2023-06-07T18:10:54.964Z,100.00
2023-06-07T18:13:22.708Z,100.00
2023-06-07T18:15:51.313Z,100.00
2023-06-07T18:18:19.504Z,100.00
2023-06-07T18:20:47.235Z,100.00
2023-06-07T18:23:14.900Z,100.00
2023-06-07T18:25:44.099Z,100.00
2023-06-07T18:28:11.845Z,100.00
2023-06-07T18:30:40.032Z,100.00
2023-06-07T18:33:07.790Z,100.00
2023-06-07T18:35:36.090Z,100.00
2023-06-07T18:38:03.759Z,100.00
2023-06-07T18:40:33.948Z,100.00
2023-06-07T18:43:03.279Z,100.00
2023-06-07T18:45:31.271Z,100.00
2023-06-07T18:47:59.339Z,100.00
2023-06-07T18:50:27.538Z,100.00
2023-06-07T18:52:57.199Z,100.00
2023-06-07T18:55:25.311Z,100.00
2023-06-07T18:57:53.070Z,100.00
2023-06-07T19:00:23.002Z,100.00
2023-06-07T19:02:50.950Z,100.00
2023-06-07T19:05:18.845Z,100.00
2023-06-07T19:07:46.578Z,100.00
2023-06-07T19:10:14.440Z,100.00
2023-06-07T19:12:42.148Z,100.00
2023-06-07T19:15:10.317Z,100.00
2023-06-07T19:17:39.571Z,100.00
2023-06-07T19:20:08.955Z,100.00
2023-06-07T19:22:36.980Z,100.00
2023-06-07T19:25:05.238Z,100.00
2023-06-07T19:27:33.209Z,100.00
2023-06-07T19:30:00.913Z,100.00
2023-06-07T19:32:30.441Z,100.00
2023-06-07T19:35:02.468Z,100.00
2023-06-07T19:37:30.216Z,100.00
2023-06-07T19:39:57.930Z,100.00
2023-06-07T19:42:26.779Z,100.00
2023-06-07T19:44:54.498Z,100.00
2023-06-07T19:47:22.370Z,100.00
2023-06-07T19:49:50.295Z,100.00
2023-06-07T19:52:19.879Z,100.00
2023-06-07T19:54:49.281Z,100.00
2023-06-07T19:57:16.987Z,100.00
2023-06-07T19:59:44.653Z,100.00
2023-06-07T20:02:12.378Z,100.00
2023-06-07T20:04:41.598Z,100.00
2023-06-07T20:07:10.175Z,100.00
2023-06-07T20:09:40.545Z,100.00
2023-06-07T20:12:09.452Z,100.00
2023-06-07T20:14:40.550Z,100.00
2023-06-07T20:17:09.352Z,100.00
2023-06-07T20:19:37.322Z,100.00
2023-06-07T20:22:05.428Z,100.00
2023-06-07T20:24:33.438Z,100.00
2023-06-07T20:27:02.453Z,100.00
2023-06-07T20:29:30.239Z,100.00
2023-06-07T20:31:58.048Z,100.00
2023-06-07T20:34:25.843Z,100.00
2023-06-07T20:36:53.487Z,100.00
2023-06-07T20:39:21.181Z,100.00
2023-06-07T20:41:48.838Z,100.00
2023-06-07T20:44:17.874Z,100.00
2023-06-07T20:46:46.896Z,100.00
2023-06-07T20:49:14.620Z,100.00
2023-06-07T20:51:42.297Z,100.00
2023-06-07T20:54:10.584Z,100.00
2023-06-07T20:56:38.411Z,100.00
2023-06-07T20:59:06.034Z,100.00
2023-06-07T21:01:35.262Z,100.00
2023-06-07T21:04:03.307Z,100.00
2023-06-07T21:06:31.304Z,100.00
2023-06-07T21:08:58.967Z,100.00
2023-06-07T21:11:27.109Z,100.00
2023-06-07T21:13:54.878Z,100.00
2023-06-07T21:16:22.579Z,100.00
2023-06-07T21:18:51.707Z,100.00
2023-06-07T21:21:19.378Z,100.00
2023-06-07T21:23:47.133Z,100.00
2023-06-07T21:26:14.872Z,100.00
2023-06-07T21:28:42.634Z,100.00
2023-06-07T21:31:10.731Z,100.00
2023-06-07T21:33:38.418Z,100.00
2023-06-07T21:36:08.056Z,100.00
2023-06-07T21:38:35.760Z,100.00
2023-06-07T21:41:03.394Z,100.00
2023-06-07T21:43:31.071Z,100.00
2023-06-07T21:45:58.732Z,100.00
2023-06-07T21:48:26.483Z,100.00
2023-06-07T21:50:54.125Z,100.00
2023-06-07T21:53:23.168Z,100.00
2023-06-07T21:55:50.812Z,100.00
2023-06-07T21:58:18.451Z,100.00
2023-06-07T22:00:46.952Z,100.00
2023-06-07T22:03:14.833Z,100.00
2023-06-07T22:05:42.645Z,100.00
2023-06-07T22:08:10.393Z,100.00
2023-06-07T22:10:40.472Z,100.00
2023-06-07T22:13:09.594Z,100.00
2023-06-07T22:15:37.907Z,100.00
2023-06-07T22:18:05.877Z,100.00
2023-06-07T22:20:37.986Z,100.00
2023-06-07T22:23:08.308Z,100.00
2023-06-07T22:25:41.628Z,100.00
2023-06-07T22:28:13.356Z,100.00
2023-06-07T22:30:42.479Z,100.00
2023-06-07T22:33:10.898Z,100.00
2023-06-07T22:35:41.262Z,100.00
2023-06-07T22:38:13.269Z,100.00
2023-06-07T22:40:41.624Z,100.00
2023-06-07T22:43:09.273Z,100.00
2023-06-07T22:45:38.982Z,100.00
2023-06-07T22:48:11.485Z,100.00
2023-06-07T22:50:40.922Z,100.00
2023-06-07T22:53:13.408Z,100.00
2023-06-07T22:55:42.491Z,100.00
2023-06-07T22:58:10.808Z,100.00
2023-06-07T23:00:41.602Z,100.00
2023-06-07T23:03:09.658Z,100.00
2023-06-07T23:05:39.300Z,100.00
2023-06-07T23:08:08.057Z,100.00
2023-06-07T23:10:37.691Z,100.00
2023-06-07T23:13:09.254Z,100.00
2023-06-07T23:15:43.445Z,100.00
2023-06-07T23:18:12.608Z,100.00
2023-06-07T23:20:42.322Z,100.00
2023-06-07T23:23:11.297Z,100.00
2023-06-07T23:25:39.442Z,100.00
2023-06-07T23:28:07.493Z,100.00
2023-06-07T23:30:35.653Z,100.00
2023-06-07T23:33:05.656Z,100.00
2023-06-07T23:35:33.494Z,100.00
2023-06-07T23:38:01.291Z,100.00
2023-06-07T23:40:29.067Z,100.00
2023-06-07T23:42:57.866Z,100.00
2023-06-07T23:45:26.635Z,100.00
2023-06-07T23:47:54.886Z,100.00
2023-06-07T23:50:24.221Z,100.00
2023-06-07T23:52:51.869Z,100.00
2023-06-07T23:55:19.663Z,100.00
2023-06-07T23:57:47.381Z,100.00
